Time;durP1;ratioP1;P1;durP2;ratioP2;P2;SDS_P1;SDS_P2;PMS_P1;PMS_P2;Temp;Humidity;BMP_temperature;BMP_pressure;BME280_temperature;BME280_humidity;BME280_pressure;Samples;Min_cycle;Max_cycle;Signal;HPM_P1;HPM_P2
2022/07/30 00:02:00;;;;;;;19.90;13.00;;;;;;;15.13;100.00;164520.94;5021552;28;20481;-60
2022/07/30 00:04:25;;;;;;;13.75;10.77;;;;;;;15.07;100.00;164506.09;5028758;28;20417;-60
2022/07/30 00:06:51;;;;;;;11.18;8.82;;;;;;;14.94;100.00;164470.88;5030035;28;20033;-60
2022/07/30 00:09:16;;;;;;;16.55;10.65;;;;;;;14.83;100.00;164443.84;5027682;28;20029;-60
2022/07/30 00:11:41;;;;;;;15.60;11.13;;;;;;;14.72;100.00;164415.41;5030138;28;20021;-60
2022/07/30 00:14:07;;;;;;;13.40;12.10;;;;;;;14.65;100.00;164396.41;5011079;28;20374;-60
2022/07/30 00:16:32;;;;;;;13.75;12.30;;;;;;;14.59;100.00;164381.53;5010384;28;20377;-60
2022/07/30 00:18:58;;;;;;;17.08;12.00;;;;;;;14.51;100.00;164359.88;5010559;28;20026;-60
2022/07/30 00:21:23;;;;;;;20.23;13.13;;;;;;;14.49;100.00;164353.13;5010865;28;20489;-60
2022/07/30 00:23:48;;;;;;;15.10;13.50;;;;;;;14.44;100.00;164342.25;5014366;28;20022;-60
2022/07/30 00:26:14;;;;;;;17.92;13.75;;;;;;;14.39;100.00;164327.41;5012476;28;20046;-60
2022/07/30 00:28:39;;;;;;;26.10;13.57;;;;;;;14.35;100.00;164316.56;5029691;28;20140;-60
2022/07/30 00:31:04;;;;;;;14.57;13.05;;;;;;;14.25;100.00;164290.88;5032599;28;20459;-60
2022/07/30 00:33:30;;;;;;;10.98;9.75;;;;;;;14.10;100.00;164253.00;5033756;28;20033;-60
2022/07/30 00:35:55;;;;;;;11.55;10.43;;;;;;;13.96;100.00;164215.13;5032117;28;20053;-60
2022/07/30 00:38:20;;;;;;;11.82;10.65;;;;;;;13.85;100.00;164186.72;5033655;28;20025;-59
2022/07/30 00:40:46;;;;;;;16.73;11.35;;;;;;;13.76;100.00;164162.38;5032385;28;20041;-60
2022/07/30 00:43:18;;;;;;;20.77;12.07;;;;;;;13.75;100.00;164159.66;5023196;28;20933;-60
2022/07/30 00:45:44;;;;;;;19.23;14.15;;;;;;;13.74;100.00;164156.94;5012662;28;20177;-60
2022/07/30 00:48:10;;;;;;;16.50;14.73;;;;;;;13.81;100.00;164175.94;5013769;28;20112;-60
2022/07/30 00:50:36;;;;;;;19.00;13.07;;;;;;;13.80;100.00;164173.22;5012355;28;20125;-60
2022/07/30 00:53:01;;;;;;;16.77;14.57;;;;;;;13.78;100.00;164169.13;5013941;28;20057;-60
2022/07/30 00:55:27;;;;;;;16.23;14.40;;;;;;;13.80;100.00;164173.22;5010939;28;20057;-60
2022/07/30 00:57:52;;;;;;;16.35;14.07;;;;;;;13.78;100.00;164169.13;5012199;28;20026;-61
2022/07/30 01:00:18;;;;;;;26.45;16.70;;;;;;;13.81;100.00;164175.94;5012919;28;20049;-60
2022/07/30 01:02:44;;;;;;;18.85;15.75;;;;;;;13.80;100.00;164174.53;5033182;28;20120;-60
2022/07/30 01:05:09;;;;;;;16.83;15.02;;;;;;;13.79;100.00;164170.50;5031687;28;20037;-60
2022/07/30 01:07:35;;;;;;;15.90;13.80;;;;;;;13.75;100.00;164159.66;5033128;28;20022;-60
2022/07/30 01:10:01;;;;;;;17.52;15.85;;;;;;;13.75;100.00;164159.66;5031866;28;20135;-60
2022/07/30 01:12:26;;;;;;;19.58;16.40;;;;;;;13.73;100.00;164154.28;5030301;28;20033;-60
2022/07/30 01:14:54;;;;;;;19.80;15.18;;;;;;;13.70;100.00;164146.16;5011792;28;20057;-60
2022/07/30 01:17:19;;;;;;;16.10;14.17;;;;;;;13.62;100.00;164125.88;5013247;28;20030;-60
2022/07/30 01:19:47;;;;;;;19.48;16.50;;;;;;;13.61;100.00;164124.50;5011983;28;20038;-60
2022/07/30 01:22:24;;;;;;;26.92;18.48;;;;;;;13.53;100.00;164102.88;5026334;28;20083;-60
2022/07/30 01:25:02;;;;;;;17.02;15.35;;;;;;;13.45;100.00;164081.22;5011891;28;20558;-60
2022/07/30 01:27:29;;;;;;;16.45;14.82;;;;;;;13.37;100.00;164059.53;5012472;28;20103;-60
2022/07/30 01:29:56;;;;;;;18.15;16.35;;;;;;;13.27;100.00;164035.22;5012499;28;20042;-60
2022/07/30 01:32:23;;;;;;;19.63;17.55;;;;;;;13.21;100.00;164019.03;5012224;28;20107;-60
2022/07/30 01:34:51;;;;;;;20.42;16.58;;;;;;;13.13;100.00;163997.38;5011412;28;20056;-60
2022/07/30 01:37:17;;;;;;;20.20;18.05;;;;;;;13.07;100.00;163981.16;5017876;28;20072;-60
2022/07/30 01:39:43;;;;;;;25.23;17.88;;;;;;;12.97;100.00;163956.81;5031540;28;20045;-60
2022/07/30 01:42:12;;;;;;;23.55;18.38;;;;;;;13.04;100.00;163973.03;5032644;28;20072;-60
2022/07/30 01:44:39;;;;;;;36.70;20.13;;;;;;;13.06;100.00;163978.47;5031195;28;20038;-60
2022/07/30 01:47:07;;;;;;;25.02;18.95;;;;;;;13.05;100.00;163975.75;5032904;28;20542;-60
2022/07/30 01:49:35;;;;;;;23.83;20.88;;;;;;;13.13;100.00;163997.38;5017895;28;20045;-60
2022/07/30 01:52:02;;;;;;;18.50;16.65;;;;;;;13.15;100.00;164004.13;5032550;28;20029;-60
2022/07/30 01:54:28;;;;;;;21.02;18.08;;;;;;;13.12;100.00;163994.66;5030737;28;20041;-60
2022/07/30 01:56:55;;;;;;;23.20;19.25;;;;;;;13.16;100.00;164005.47;5032130;28;20017;-60
2022/07/30 01:59:22;;;;;;;21.25;17.02;;;;;;;13.13;100.00;163997.38;5030899;28;20049;-60
2022/07/30 02:01:47;;;;;;;15.25;13.60;;;;;;;13.07;100.00;163981.16;5032320;28;20040;-60
2022/07/30 02:04:13;;;;;;;20.48;17.33;;;;;;;12.98;100.00;163959.53;5030108;28;20033;-60
2022/07/30 02:07:13;;;;;;;20.88;18.70;;;;;;;12.92;100.00;163941.94;5032119;28;20021;-60
2022/07/30 02:09:52;;;;;;;15.98;14.07;;;;;;;12.87;100.00;163928.44;5028244;28;20259;-60
2022/07/30 02:12:27;;;;;;;349.67;24.52;;;;;;;12.82;100.00;163916.28;5031610;28;20053;-60
2022/07/30 02:15:09;;;;;;;17.75;15.95;;;;;;;12.75;100.00;163897.34;5024004;28;20034;-60
2022/07/30 02:17:54;;;;;;;19.20;17.10;;;;;;;12.72;100.00;163889.22;5012435;28;20026;-61
2022/07/30 02:20:22;;;;;;;25.58;22.23;;;;;;;12.67;100.00;163878.44;5023357;28;20356;-60
2022/07/30 02:22:47;;;;;;;29.35;22.55;;;;;;;12.67;100.00;163878.44;5031738;28;20021;-60
2022/07/30 02:25:19;;;;;;;28.00;25.00;;;;;;;12.67;100.00;163878.44;5030348;28;20033;-60
2022/07/30 02:27:49;;;;;;;23.30;20.75;;;;;;;12.67;100.00;163878.44;5031334;28;20357;-60
2022/07/30 02:30:15;;;;;;;22.60;20.02;;;;;;;12.61;100.00;163862.22;5029846;28;20048;-60
2022/07/30 02:32:42;;;;;;;23.15;20.65;;;;;;;12.54;100.00;163843.28;5030467;28;20034;-60
2022/07/30 02:35:14;;;;;;;24.52;21.50;;;;;;;12.47;100.00;163825.72;5011441;28;20044;-60
2022/07/30 02:37:42;;;;;;;24.77;21.27;;;;;;;12.42;100.00;163812.22;5011887;28;20502;-60
2022/07/30 02:40:09;;;;;;;25.67;22.92;;;;;;;12.37;100.00;163800.03;5010421;28;20045;-60
2022/07/30 02:42:35;;;;;;;30.85;26.40;;;;;;;12.37;100.00;163798.66;5022068;28;20076;-60
2022/07/30 02:45:02;;;;;;;29.15;26.10;;;;;;;12.46;100.00;163821.66;5030050;28;20068;-60
2022/07/30 02:47:28;;;;;;;36.15;29.77;;;;;;;12.63;100.00;163867.59;5028809;28;20140;-60
2022/07/30 02:49:54;;;;;;;46.50;33.97;;;;;;;12.79;100.00;163908.13;5009813;28;20100;-60
2022/07/30 02:52:21;;;;;;;50.25;36.22;;;;;;;12.96;100.00;157218.72;5011386;28;20350;-60
2022/07/30 02:54:48;;;;;;;65.00;39.33;;;;;;;13.13;100.00;149115.78;5011976;28;20034;-60
2022/07/30 02:57:16;;;;;;;52.67;39.73;;;;;;;13.30;100.00;142438.38;5031031;28;20033;-60
2022/07/30 02:59:43;;;;;;;59.88;42.53;;;;;;;13.44;100.00;136820.03;5029779;28;20041;-60
2022/07/30 03:02:10;;;;;;;51.08;39.92;;;;;;;13.56;100.00;132259.97;5031082;28;20432;-60
2022/07/30 03:04:37;;;;;;;60.38;41.67;;;;;;;13.66;100.00;128403.66;5029271;28;20041;-60
2022/07/30 03:07:04;;;;;;;56.03;39.33;;;;;;;13.75;100.00;125957.97;5031341;28;20026;-60
2022/07/30 03:09:30;;;;;;;57.65;40.50;;;;;;;13.83;100.00;123508.91;5023161;28;20038;-60
2022/07/30 03:11:55;;;;;;;63.20;44.00;;;;;;;13.90;100.00;121411.56;5010875;28;20168;-60
2022/07/30 03:14:21;;;;;;;57.20;42.58;;;;;;;13.96;100.00;119664.53;5020188;28;20727;-60
2022/07/30 03:16:54;;;;;;;50.38;36.20;;;;;;;14.01;100.00;118265.69;5030709;28;20040;-60
2022/07/30 03:19:21;;;;;;;55.33;41.10;;;;;;;14.06;100.00;116518.47;5011669;28;20030;-60
2022/07/30 03:21:49;;;;;;;47.80;36.43;;;;;;;14.08;100.00;115467.88;5011024;28;20111;-60
2022/07/30 03:24:16;;;;;;;52.03;40.35;;;;;;;14.17;100.00;114078.28;5018348;28;20108;-60
2022/07/30 03:26:44;;;;;;;50.33;38.87;;;;;;;14.22;100.00;113033.56;5030472;28;20511;-60
2022/07/30 03:29:12;;;;;;;49.67;36.70;;;;;;;14.26;100.00;112338.38;5029398;28;20647;-60
2022/07/30 03:31:39;;;;;;;53.47;37.60;;;;;;;14.30;100.00;111290.22;5030497;28;20025;-60
2022/07/30 03:34:05;;;;;;;45.53;36.05;;;;;;;14.35;100.00;110597.84;5030589;28;20025;-60
2022/07/30 03:36:31;;;;;;;44.03;36.92;;;;;;;14.37;100.00;109898.28;5017240;28;20108;-60
2022/07/30 03:38:56;;;;;;;49.80;37.00;;;;;;;14.41;100.00;108852.22;5023154;28;20405;-60
2022/07/30 03:41:22;;;;;;;58.72;42.00;;;;;;;14.44;100.00;108155.53;5028374;28;20489;-60
2022/07/30 03:43:48;;;;;;;47.72;35.90;;;;;;;14.45;100.00;107806.31;5030766;28;20026;-60
2022/07/30 03:46:15;;;;;;;101.45;36.55;;;;;;;14.46;100.00;107457.13;5028836;28;20489;-60
2022/07/30 03:48:40;;;;;;;42.28;33.10;;;;;;;14.49;100.00;106760.50;5018174;28;20501;-60
2022/07/30 03:51:10;;;;;;;50.67;34.83;;;;;;;14.50;100.00;106411.38;5009246;28;20129;-60
2022/07/30 03:53:35;;;;;;;45.17;34.35;;;;;;;14.52;100.00;106414.84;5025866;28;20024;-60
2022/07/30 03:56:02;;;;;;;46.90;36.38;;;;;;;14.54;100.00;105715.72;5026279;28;20045;-60
2022/07/30 03:58:27;;;;;;;48.75;33.88;;;;;;;14.56;100.00;105018.38;5010435;28;20033;-60
2022/07/30 04:00:53;;;;;;;46.50;33.97;;;;;;;14.58;100.00;104320.28;5009357;28;20052;-60
2022/07/30 04:03:30;;;;;;;50.80;36.08;;;;;;;14.60;100.00;103271.59;5023486;28;20504;-60
2022/07/30 04:05:55;;;;;;;48.33;34.90;;;;;;;14.64;100.00;102224.72;5028940;28;20045;-59
2022/07/30 04:08:21;;;;;;;51.50;38.00;;;;;;;14.66;100.00;101526.97;5015787;28;20061;-60
2022/07/30 04:10:47;;;;;;;55.50;37.65;;;;;;;14.64;100.00;100472.22;5018047;28;20527;-59
2022/07/30 04:13:12;;;;;;;61.80;38.45;;;;;;;14.70;100.00;99781.97;5018828;28;20021;-61
2022/07/30 04:15:57;;;;;;;47.85;37.13;;;;;;;14.73;100.00;99086.06;5019442;28;20038;-60
2022/07/30 04:18:25;;;;;;;67.93;33.17;;;;;;;14.79;100.00;98043.03;5015686;28;20026;-60
2022/07/30 04:20:52;;;;;;;51.38;38.88;;;;;;;14.81;100.00;97346.44;5018104;28;20072;-60
2022/07/30 04:23:18;;;;;;;61.65;34.92;;;;;;;14.83;100.00;96649.13;5017907;28;20021;-60
2022/07/30 04:25:44;;;;;;;42.83;32.42;;;;;;;14.88;100.00;95955.78;5016446;28;20046;-60
2022/07/30 04:28:11;;;;;;;50.55;35.05;;;;;;;14.91;100.00;95260.88;5010325;28;20054;-60
2022/07/30 04:30:36;;;;;;;70.68;33.80;;;;;;;14.98;100.00;94569.84;5008939;28;20385;-60
2022/07/30 04:33:03;;;;;;;52.67;34.90;;;;;;;15.01;100.00;93874.25;5010239;28;20113;-60
2022/07/30 04:35:34;;;;;;;52.78;35.05;;;;;;;15.03;100.00;93527.22;5014949;28;20499;-60
2022/07/30 04:38:01;;;;;;;46.47;32.08;;;;;;;15.09;100.00;93186.22;5029679;28;20087;-60
2022/07/30 04:40:26;;;;;;;61.67;31.52;;;;;;;15.13;100.00;92492.19;5008461;28;20492;-60
2022/07/30 04:42:52;;;;;;;44.60;31.33;;;;;;;15.16;100.00;92146.63;5010277;28;20018;-60
2022/07/30 04:45:19;;;;;;;42.33;30.30;;;;;;;15.19;100.00;91801.09;5008651;28;20441;-60
2022/07/30 04:47:45;;;;;;;39.70;29.63;;;;;;;15.25;100.00;91108.53;5021328;28;20021;-60
2022/07/30 04:50:12;;;;;;;40.20;27.95;;;;;;;15.29;100.00;90764.47;5017989;28;20042;-60
2022/07/30 04:52:37;;;;;;;61.33;27.85;;;;;;;15.33;100.00;90070.44;5010331;28;20030;-60
2022/07/30 04:55:06;;;;;;;36.17;26.23;;;;;;;15.36;100.00;89725.63;5008536;28;20066;-60
2022/07/30 04:57:34;;;;;;;40.13;26.88;;;;;;;15.38;100.00;89028.03;5009769;28;20121;-60
2022/07/30 05:00:00;;;;;;;36.58;27.58;;;;;;;15.38;100.00;88678.91;5019539;28;20124;-60
2022/07/30 05:02:29;;;;;;;32.00;25.27;;;;;;;15.43;100.00;88335.53;5029341;28;20029;-60
2022/07/30 05:04:57;;;;;;;35.47;25.75;;;;;;;15.46;100.00;87989.97;5027974;28;20073;-60
2022/07/30 05:07:23;;;;;;;29.35;24.85;;;;;;;15.50;100.00;87645.13;5030365;28;20451;-60
2022/07/30 05:09:48;;;;;;;34.13;27.85;;;;;;;15.51;100.00;87297.47;5031560;28;20048;-60
2022/07/30 05:12:14;;;;;;;31.35;27.60;;;;;;;15.61;100.00;86611.22;5033015;28;20055;-60
2022/07/30 05:14:40;;;;;;;34.42;25.98;;;;;;;15.63;100.00;86263.56;5032160;28;20037;-60
2022/07/30 05:17:06;;;;;;;31.17;24.50;;;;;;;15.67;100.00;85919.38;5031102;28;20108;-60
2022/07/30 05:19:31;;;;;;;31.17;23.60;;;;;;;15.69;100.00;85922.13;5031457;28;20043;-60
2022/07/30 05:21:56;;;;;;;33.50;23.02;;;;;;;15.74;100.00;85578.59;5028482;28;20029;-60
2022/07/30 05:24:22;;;;;;;28.58;22.30;;;;;;;15.71;100.00;86275.34;5011276;28;20481;-60
2022/07/30 05:26:47;;;;;;;29.23;22.95;;;;;;;15.77;100.00;86632.81;5014943;28;20714;-60
2022/07/30 05:29:13;;;;;;;25.80;21.20;;;;;;;15.78;100.00;87334.00;5031507;28;20022;-60
2022/07/30 05:31:38;;;;;;;31.20;21.60;;;;;;;15.85;100.00;87343.88;5032328;28;20036;-60
2022/07/30 05:34:04;;;;;;;35.95;25.67;;;;;;;15.84;100.00;88041.72;5032801;28;20486;-60
2022/07/30 05:36:29;;;;;;;29.63;23.55;;;;;;;15.89;100.00;88398.16;5031233;28;20042;-60
2022/07/30 05:38:55;;;;;;;31.52;24.30;;;;;;;15.93;100.00;88403.84;5012847;28;20319;-60
2022/07/30 05:41:20;;;;;;;24.88;21.92;;;;;;;15.95;100.00;88756.81;5011391;28;20041;-60
2022/07/30 05:43:46;;;;;;;26.23;21.33;;;;;;;15.96;100.00;89458.59;5013163;28;20018;-60
2022/07/30 05:46:11;;;;;;;24.88;20.70;;;;;;;16.02;100.00;90167.78;5021082;28;20049;-60
2022/07/30 05:48:37;;;;;;;26.90;21.30;;;;;;;15.97;100.00;91912.25;5032546;28;20037;-60
2022/07/30 05:51:03;;;;;;;30.73;20.52;;;;;;;15.97;100.00;92963.66;5031069;28;20056;-60
2022/07/30 05:53:29;;;;;;;25.63;23.02;;;;;;;16.05;100.00;92974.88;5017168;28;20145;-60
2022/07/30 05:55:54;;;;;;;28.27;21.45;;;;;;;16.05;100.00;92975.63;5023116;28;20128;-60
2022/07/30 05:58:19;;;;;;;24.48;19.40;;;;;;;16.12;100.00;93336.75;5032318;28;20079;-60
2022/07/30 06:00:45;;;;;;;23.00;20.38;;;;;;;16.13;100.00;94390.28;5030921;28;20064;-60
2022/07/30 06:03:11;;;;;;;24.38;21.63;;;;;;;16.16;100.00;95095.66;5031720;28;20037;-60
2022/07/30 06:05:36;;;;;;;27.25;21.17;;;;;;;16.21;100.00;95805.06;5030783;28;20042;-60
2022/07/30 06:08:02;;;;;;;26.48;20.15;;;;;;;16.20;100.00;96856.31;5031533;28;20021;-60
2022/07/30 06:10:27;;;;;;;22.83;17.35;;;;;;;16.24;100.00;98266.03;5030171;28;20045;-60
2022/07/30 06:12:53;;;;;;;28.35;19.67;;;;;;;16.29;100.00;98977.13;5021984;28;20026;-60
2022/07/30 06:15:18;;;;;;;22.25;18.38;;;;;;;16.34;100.00;99687.69;5013427;28;20046;-60
2022/07/30 06:17:45;;;;;;;24.15;19.05;;;;;;;16.47;100.00;100762.09;5031689;28;20079;-60
2022/07/30 06:20:12;;;;;;;20.90;17.35;;;;;;;16.48;100.00;103928.25;5030338;28;20117;-60
2022/07/30 06:22:38;;;;;;;20.98;16.75;;;;;;;16.47;100.00;108501.81;5012372;28;20030;-60
2022/07/30 06:25:04;;;;;;;22.70;17.65;;;;;;;16.50;100.00;111677.72;5010380;28;20038;-60
2022/07/30 06:27:29;;;;;;;21.60;16.67;;;;;;;16.59;100.00;112045.63;5011795;28;20045;-60
2022/07/30 06:29:54;;;;;;;21.77;17.38;;;;;;;16.68;100.00;113118.00;5010478;28;20493;-60
2022/07/30 06:32:20;;;;;;;19.38;14.80;;;;;;;16.70;100.00;116650.78;5028489;28;20106;-60
2022/07/30 06:34:45;;;;;;;16.92;14.63;;;;;;;16.79;100.00;121612.16;5030368;28;20034;-60
2022/07/30 06:37:10;;;;;;;22.38;15.15;;;;;;;16.93;100.00;124114.34;5028312;28;20026;-60
2022/07/30 06:39:36;;;;;;;25.60;18.27;;;;;;;17.03;100.00;129090.75;5010255;28;20073;-60
2022/07/30 06:42:01;;;;;;;20.10;15.07;;;;;;;17.12;100.00;136556.34;5011929;28;20030;-60
2022/07/30 06:44:26;;;;;;;20.85;14.77;;;;;;;17.18;100.00;145096.38;5010077;28;20473;-60
2022/07/30 06:46:52;;;;;;;19.38;13.63;;;;;;;17.26;100.00;152947.69;5026811;28;20036;-60
2022/07/30 06:49:17;;;;;;;19.73;13.32;;;;;;;17.30;100.00;164418.25;5020696;28;20103;-60
2022/07/30 06:51:44;;;;;;;20.85;11.35;;;;;;;17.34;100.00;165102.06;5011749;28;20029;-60
2022/07/30 06:54:10;;;;;;;12.93;10.52;;;;;;;17.58;100.00;165164.44;5020323;28;20021;-60
2022/07/30 06:56:36;;;;;;;23.35;12.20;;;;;;;17.97;100.00;165267.50;5031088;28;20472;-60
2022/07/30 06:59:01;;;;;;;14.57;10.40;;;;;;;18.19;100.00;165324.44;5031484;28;20033;-60
2022/07/30 07:01:26;;;;;;;13.73;9.85;;;;;;;18.35;100.00;165367.84;5029287;28;20354;-60
2022/07/30 07:03:52;;;;;;;17.20;10.50;;;;;;;18.48;100.00;165400.38;5031098;28;20033;-59
2022/07/30 07:06:17;;;;;;;16.67;11.30;;;;;;;18.43;100.00;165386.81;5029317;28;20037;-60
2022/07/30 07:08:42;;;;;;;14.20;10.63;;;;;;;18.36;100.00;165370.50;5030136;28;20025;-60
2022/07/30 07:11:08;;;;;;;12.55;10.80;;;;;;;18.24;100.00;165339.31;5029493;28;20041;-60
2022/07/30 07:13:33;;;;;;;18.23;10.98;;;;;;;18.17;100.00;165319.00;5030941;28;20628;-60
2022/07/30 07:15:58;;;;;;;14.60;12.45;;;;;;;18.16;100.00;165316.28;5021084;28;20108;-60
2022/07/30 07:18:24;;;;;;;14.18;11.35;;;;;;;18.17;100.00;165319.00;5010942;28;20036;-60
2022/07/30 07:20:49;;;;;;;16.38;10.23;;;;;;;18.08;100.00;165297.31;5009891;28;20045;-60
2022/07/30 07:23:14;;;;;;;11.75;10.32;;;;;;;18.16;100.00;165316.28;5010642;28;20034;-60
2022/07/30 07:25:40;;;;;;;15.45;9.05;;;;;;;18.39;100.00;165378.66;5009811;28;20045;-60
2022/07/30 07:28:06;;;;;;;14.45;9.95;;;;;;;18.79;100.00;165481.75;5022495;28;20536;-60
2022/07/30 07:30:32;;;;;;;14.68;9.70;;;;;;;-146.58;100.00;69501.63;5027929;28;20522;-60
2022/07/30 07:32:57;;;;;;;9.65;7.82;;;;;;;19.53;100.00;165675.75;5030607;28;20144;-60
2022/07/30 07:35:22;;;;;;;13.40;7.13;;;;;;;19.46;100.00;165658.16;5026225;28;20041;-60
2022/07/30 07:37:48;;;;;;;19.58;9.88;;;;;;;19.25;100.00;165603.84;5019678;28;20033;-60
2022/07/30 07:40:13;;;;;;;9.90;7.53;;;;;;;19.41;100.00;165644.53;5028723;28;20053;-60
2022/07/30 07:42:39;;;;;;;15.95;10.25;;;;;;;19.45;100.00;165655.44;5030575;28;20075;-60
2022/07/30 07:45:04;;;;;;;13.13;8.07;;;;;;;19.44;100.00;165654.03;5028956;28;20048;-60
2022/07/30 07:47:30;;;;;;;14.23;8.05;;;;;;;19.64;100.00;165705.63;5030087;28;20025;-60
2022/07/30 07:49:55;;;;;;;17.10;8.75;;;;;;;19.89;100.00;165772.16;5029048;28;20120;-60
2022/07/30 07:52:20;;;;;;;9.38;5.95;;;;;;;19.87;100.00;165766.72;5024241;28;20029;-60
2022/07/30 07:54:46;;;;;;;11.57;6.50;;;;;;;19.90;100.00;165774.88;5011275;28;20041;-60
2022/07/30 07:57:11;;;;;;;12.43;5.85;;;;;;;20.03;100.00;165807.44;5030313;28;20033;-61
2022/07/30 07:59:36;;;;;;;10.73;7.10;;;;;;;20.11;100.00;165829.16;5028998;28;20034;-60
2022/07/30 08:02:02;;;;;;;14.63;7.45;;;;;;;20.42;100.00;165910.63;5030652;28;20021;-60
2022/07/30 08:04:27;;;;;;;10.57;6.40;;;;;;;20.21;100.00;165856.31;5028627;28;20033;-60
2022/07/30 08:06:53;;;;;;;11.77;5.95;;;;;;;19.91;100.00;165777.63;5029426;28;20033;-60
2022/07/30 08:09:18;;;;;;;10.38;6.55;;;;;;;20.07;100.00;165819.66;5028318;28;20488;-60
2022/07/30 08:11:43;;;;;;;13.13;5.65;;;;;;;20.35;100.00;165891.59;5028646;28;20033;-60
2022/07/30 08:14:09;;;;;;;13.77;6.45;;;;;;;21.01;100.00;166065.44;5010685;28;20022;-60
2022/07/30 08:16:34;;;;;;;8.95;6.70;;;;;;;21.55;100.00;166209.41;5008534;28;20045;-60
2022/07/30 08:18:59;;;;;;;16.30;6.75;;;;;;;21.82;100.00;166280.06;5010684;28;20531;-60
2022/07/30 08:21:25;;;;;;;10.48;5.68;;;;;;;22.37;100.00;166424.09;5008948;28;20045;-60
2022/07/30 08:23:50;;;;;;;14.30;5.13;;;;;;;22.61;100.00;166486.63;5010136;28;20034;-60
2022/07/30 08:26:15;;;;;;;9.05;5.72;;;;;;;22.70;100.00;166511.09;5022273;28;20045;-60
2022/07/30 08:28:42;;;;;;;6.43;4.85;;;;;;;22.58;100.00;166478.47;5030173;28;20428;-60
2022/07/30 08:31:07;;;;;;;18.40;4.97;;;;;;;22.70;100.00;166511.09;5028462;28;20056;-61
2022/07/30 08:33:33;;;;;;;9.15;4.95;;;;;;;22.90;100.00;166562.72;5015135;28;20112;-60
2022/07/30 08:35:58;;;;;;;14.65;7.18;;;;;;;23.18;100.00;166636.19;5009007;28;20042;-60
2022/07/30 08:38:23;;;;;;;11.80;4.60;;;;;;;23.30;100.00;166668.81;5027791;28;20075;-60
2022/07/30 08:40:49;;;;;;;7.63;5.20;;;;;;;23.32;100.00;166674.25;5028813;28;20095;-60
2022/07/30 08:43:15;;;;;;;8.98;5.43;;;;;;;23.22;100.00;166647.06;5033507;28;20500;-60
2022/07/30 08:45:41;;;;;;;4.78;3.28;;;;;;;23.05;100.00;166603.50;5030241;28;20041;-60
2022/07/30 08:48:09;;;;;;;12.30;5.22;;;;;;;22.61;100.00;166486.63;5013856;28;20022;-60
2022/07/30 08:50:35;;;;;;;7.47;4.95;;;;;;;22.22;100.00;166384.66;5012175;28;20045;-58
2022/07/30 08:53:02;;;;;;;6.20;4.60;;;;;;;22.26;100.00;166394.16;5018217;28;20036;-58
2022/07/30 08:55:27;;;;;;;8.32;4.88;;;;;;;22.67;100.00;166502.97;5032008;28;20042;-60
2022/07/30 08:57:53;;;;;;;8.82;4.38;;;;;;;23.08;100.00;166611.66;5033604;28;20082;-60
2022/07/30 09:00:20;;;;;;;8.63;5.30;;;;;;;22.96;100.00;166579.06;5031775;28;20049;-60
2022/07/30 09:02:45;;;;;;;5.90;4.25;;;;;;;22.78;100.00;166532.84;5033055;28;20026;-60
2022/07/30 09:05:12;;;;;;;9.30;4.50;;;;;;;22.23;100.00;166386.06;5031731;28;20041;-61
2022/07/30 09:07:37;;;;;;;9.18;4.50;;;;;;;21.95;100.00;166312.66;5032386;28;20158;-60
2022/07/30 09:10:04;;;;;;;10.15;3.97;;;;;;;22.57;100.00;166475.75;5031821;28;20037;-60
2022/07/30 09:12:40;;;;;;;7.45;4.40;;;;;;;23.05;100.00;166603.50;5033120;28;20021;-61
2022/07/30 09:15:18;;;;;;;6.38;3.40;;;;;;;23.40;100.00;166696.00;5031639;28;20454;-60
2022/07/30 09:18:00;;;;;;;7.95;3.15;;;;;;;23.43;100.00;166702.81;5033493;28;20087;-60
2022/07/30 09:20:28;;;;;;;10.07;4.28;;;;;;;23.41;100.00;166698.75;5017339;28;20042;-60
2022/07/30 09:22:56;;;;;;;6.72;3.80;;;;;;;23.52;100.00;166725.91;5031865;28;20049;-61
2022/07/30 09:25:40;;;;;;;;;;;;;;;24.02;100.00;166859.19;5032178;28;20049;-60
2022/07/30 09:28:08;;;;;;;11.02;4.95;;;;;;;24.62;100.00;167015.63;5032730;28;19917;-60
2022/07/30 09:30:52;;;;;;;8.32;3.83;;;;;;;24.81;100.00;167066.00;5031073;28;20038;-60
2022/07/30 09:33:33;;;;;;;10.30;3.28;;;;;;;24.93;100.00;167098.66;5033146;28;20087;-60
2022/07/30 09:36:00;;;;;;;9.20;4.32;;;;;;;25.10;100.00;167142.19;5017461;28;20442;-58
2022/07/30 09:38:25;;;;;;;12.63;4.57;;;;;;;24.61;100.00;167012.91;5012748;28;20481;-59
2022/07/30 09:40:52;;;;;;;10.80;3.88;;;;;;;24.63;100.00;167018.34;5011566;28;20045;-59
2022/07/30 09:43:17;;;;;;;7.85;3.92;;;;;;;24.53;100.00;166992.53;5012420;28;20030;-58
2022/07/30 09:45:57;;;;;;;7.70;3.80;;;;;;;24.84;100.00;167074.16;5011802;28;20525;-58
2022/07/30 09:48:26;;;;;;;9.07;3.53;;;;;;;25.11;100.00;167144.94;5025603;28;20045;-59
2022/07/30 09:50:53;;;;;;;7.57;3.05;;;;;;;25.21;100.00;167170.78;5029130;28;20046;-59
2022/07/30 09:53:21;;;;;;;6.35;3.03;;;;;;;25.09;100.00;167139.47;5031858;28;20381;-59
2022/07/30 09:55:46;;;;;;;8.13;3.42;;;;;;;25.11;100.00;167144.94;5031259;28;20043;-58
2022/07/30 09:58:12;;;;;;;7.00;3.28;;;;;;;25.16;100.00;167158.50;5032029;28;20480;-58
2022/07/30 10:00:38;;;;;;;10.20;3.03;;;;;;;24.99;100.00;167114.97;5031132;28;20045;-59
2022/07/30 10:03:18;;;;;;;3.40;2.13;;;;;;;24.79;100.00;167061.94;5031966;28;20041;-59
2022/07/30 10:05:57;;;;;;;13.45;4.38;;;;;;;24.03;100.00;166860.59;5030403;28;20038;-59
2022/07/30 10:08:38;;;;;;;9.75;3.80;;;;;;;23.66;100.00;166763.97;5032018;28;20103;-59
2022/07/30 10:11:04;;;;;;;10.02;3.63;;;;;;;23.52;100.00;166725.91;5028320;28;20044;-59
2022/07/30 10:13:32;;;;;;;6.63;2.88;;;;;;;23.31;100.00;166671.53;5011930;28;20101;-59
2022/07/30 10:15:58;;;;;;;5.57;2.63;;;;;;;23.72;100.00;166780.28;5016620;28;20516;-59
2022/07/30 10:18:23;;;;;;;4.65;2.20;;;;;;;23.91;100.00;166829.25;5012087;28;20026;-61
2022/07/30 10:20:49;;;;;;;6.35;2.63;;;;;;;24.26;100.00;166921.75;5028442;28;20045;-60
2022/07/30 10:23:15;;;;;;;5.55;2.75;;;;;;;24.57;100.00;167003.38;5031864;28;20056;-61
2022/07/30 10:25:40;;;;;;;5.32;2.55;;;;;;;24.84;100.00;167074.16;5019741;28;21218;-61
2022/07/30 10:28:06;;;;;;;6.75;3.08;;;;;;;25.05;100.00;167128.59;5032041;28;20049;-61
2022/07/30 10:30:32;;;;;;;6.53;2.92;;;;;;;25.32;100.00;167202.06;5030860;28;20483;-61
2022/07/30 10:32:58;;;;;;;7.75;2.38;;;;;;;25.10;100.00;167142.19;5032638;28;20051;-61
2022/07/30 10:35:24;;;;;;;6.97;3.45;;;;;;;25.57;100.00;167266.06;5030178;28;20459;-60
2022/07/30 10:37:50;;;;;;;9.77;2.53;;;;;;;25.51;100.00;167251.09;5032303;28;20021;-60
2022/07/30 10:40:32;;;;;;;13.88;3.35;;;;;;;25.74;100.00;167310.97;5029093;28;20037;-60
2022/07/30 10:43:50;;;;;;;7.53;3.28;;;;;;;25.95;100.00;167366.78;5015486;28;20025;-60
2022/07/30 10:46:48;;;;;;;7.68;1.85;;;;;;;25.60;100.00;167274.25;5030263;28;20492;-60
2022/07/30 10:49:15;;;;;;;4.93;2.70;;;;;;;25.91;100.00;167357.25;5025478;28;20022;-60
2022/07/30 10:51:45;;;;;;;5.78;2.90;;;;;;;25.78;100.00;167321.88;5012069;28;20120;-60
2022/07/30 10:54:32;;;;;;;7.53;2.88;;;;;;;25.73;100.00;167308.25;5012439;28;20514;-60
2022/07/30 10:57:13;;;;;;;8.43;2.25;;;;;;;25.79;100.00;167324.59;5012525;28;20034;-60
2022/07/30 10:59:59;;;;;;;4.43;2.22;;;;;;;25.76;100.00;167316.44;5011013;28;20038;-60
2022/07/30 11:02:27;;;;;;;6.65;1.90;;;;;;;25.89;100.00;167351.81;5018780;28;20029;-60
2022/07/30 11:05:17;;;;;;;3.65;1.80;;;;;;;25.82;100.00;167332.75;5030010;28;20045;-60
2022/07/30 11:07:42;;;;;;;5.85;1.95;;;;;;;25.81;100.00;167330.03;5031182;28;20079;-60
2022/07/30 11:10:37;;;;;;;3.97;2.67;;;;;;;25.92;100.00;167360.00;5030233;28;20059;-60